sensor_id;sensor_type;location;lat;lon;timestamp;pressure;altitude;pressure_sealevel;temperature;humidity
55675;BME280;41562;44.330;23.802;2023-05-09T00:01:29;100902.34;;;10.12;100.00
55675;BME280;41562;44.330;23.802;2023-05-09T00:03:57;100901.91;;;9.98;100.00
55675;BME280;41562;44.330;23.802;2023-05-09T00:06:24;100909.78;;;9.88;100.00
55675;BME280;41562;44.330;23.802;2023-05-09T00:08:51;100898.34;;;10.14;100.00
55675;BME280;41562;44.330;23.802;2023-05-09T00:11:19;100901.25;;;10.34;100.00
55675;BME280;41562;44.330;23.802;2023-05-09T00:13:47;100910.47;;;10.22;100.00
55675;BME280;41562;44.330;23.802;2023-05-09T00:16:15;100909.38;;;10.18;100.00
55675;BME280;41562;44.330;23.802;2023-05-09T00:19:02;100903.78;;;9.97;100.00
55675;BME280;41562;44.330;23.802;2023-05-09T00:21:49;100900.09;;;10.03;100.00
55675;BME280;41562;44.330;23.802;2023-05-09T00:24:35;100897.44;;;10.03;100.00
55675;BME280;41562;44.330;23.802;2023-05-09T00:27:22;100891.66;;;10.12;100.00
55675;BME280;41562;44.330;23.802;2023-05-09T00:30:08;100902.63;;;9.93;100.00
55675;BME280;41562;44.330;23.802;2023-05-09T00:32:55;100898.44;;;9.97;100.00
55675;BME280;41562;44.330;23.802;2023-05-09T00:35:23;100895.66;;;9.65;100.00
55675;BME280;41562;44.330;23.802;2023-05-09T00:37:50;100901.41;;;10.01;100.00
55675;BME280;41562;44.330;23.802;2023-05-09T00:40:17;100914.09;;;9.89;100.00
55675;BME280;41562;44.330;23.802;2023-05-09T00:42:45;100907.09;;;10.09;100.00
55675;BME280;41562;44.330;23.802;2023-05-09T00:45:12;100909.94;;;10.25;100.00
55675;BME280;41562;44.330;23.802;2023-05-09T00:47:39;100907.78;;;10.00;100.00
55675;BME280;41562;44.330;23.802;2023-05-09T00:50:07;100904.88;;;10.01;100.00
55675;BME280;41562;44.330;23.802;2023-05-09T00:52:35;100909.72;;;10.04;100.00
55675;BME280;41562;44.330;23.802;2023-05-09T00:55:02;100900.63;;;10.05;100.00
55675;BME280;41562;44.330;23.802;2023-05-09T00:57:30;100911.16;;;9.90;100.00
55675;BME280;41562;44.330;23.802;2023-05-09T00:59:58;100899.84;;;10.05;100.00
55675;BME280;41562;44.330;23.802;2023-05-09T01:02:26;100903.38;;;10.11;100.00
55675;BME280;41562;44.330;23.802;2023-05-09T01:04:53;100905.94;;;10.00;100.00
55675;BME280;41562;44.330;23.802;2023-05-09T01:07:29;100905.28;;;10.15;100.00
55675;BME280;41562;44.330;23.802;2023-05-09T01:15:36;100910.59;;;10.10;100.00
55675;BME280;41562;44.330;23.802;2023-05-09T01:18:19;100918.66;;;9.93;100.00
55675;BME280;41562;44.330;23.802;2023-05-09T01:20:53;100914.72;;;10.18;100.00
55675;BME280;41562;44.330;23.802;2023-05-09T01:31:09;100927.97;;;10.13;100.00
55675;BME280;41562;44.330;23.802;2023-05-09T01:33:38;100920.66;;;10.25;100.00
55675;BME280;41562;44.330;23.802;2023-05-09T01:36:15;100918.38;;;10.12;100.00
55675;BME280;41562;44.330;23.802;2023-05-09T01:38:43;100923.53;;;9.96;100.00
55675;BME280;41562;44.330;23.802;2023-05-09T01:41:13;100932.09;;;9.98;100.00
55675;BME280;41562;44.330;23.802;2023-05-09T01:43:42;100925.28;;;10.13;100.00
55675;BME280;41562;44.330;23.802;2023-05-09T01:46:11;100929.75;;;10.24;100.00
55675;BME280;41562;44.330;23.802;2023-05-09T01:48:41;100929.44;;;9.98;100.00
55675;BME280;41562;44.330;23.802;2023-05-09T01:51:10;100933.28;;;9.86;100.00
55675;BME280;41562;44.330;23.802;2023-05-09T01:53:40;100937.44;;;9.98;100.00
55675;BME280;41562;44.330;23.802;2023-05-09T01:56:08;100935.31;;;10.00;100.00
55675;BME280;41562;44.330;23.802;2023-05-09T01:58:37;100930.78;;;10.01;100.00
55675;BME280;41562;44.330;23.802;2023-05-09T02:01:05;100935.84;;;9.97;100.00
55675;BME280;41562;44.330;23.802;2023-05-09T02:03:33;100928.53;;;10.15;100.00
55675;BME280;41562;44.330;23.802;2023-05-09T02:06:02;100932.66;;;10.22;100.00
55675;BME280;41562;44.330;23.802;2023-05-09T02:08:31;100938.03;;;10.05;100.00
55675;BME280;41562;44.330;23.802;2023-05-09T02:10:58;100935.81;;;10.19;100.00
55675;BME280;41562;44.330;23.802;2023-05-09T02:13:26;100942.09;;;10.30;100.00
55675;BME280;41562;44.330;23.802;2023-05-09T02:15:54;100935.13;;;10.29;100.00
55675;BME280;41562;44.330;23.802;2023-05-09T02:18:21;100933.97;;;10.20;100.00
55675;BME280;41562;44.330;23.802;2023-05-09T02:20:48;100940.84;;;10.16;100.00
55675;BME280;41562;44.330;23.802;2023-05-09T02:23:16;100944.47;;;10.26;100.00
55675;BME280;41562;44.330;23.802;2023-05-09T02:25:43;100944.81;;;10.35;100.00
55675;BME280;41562;44.330;23.802;2023-05-09T02:28:12;100948.94;;;10.21;100.00
55675;BME280;41562;44.330;23.802;2023-05-09T02:30:42;100945.25;;;10.27;100.00
55675;BME280;41562;44.330;23.802;2023-05-09T02:33:11;100956.75;;;10.27;100.00
55675;BME280;41562;44.330;23.802;2023-05-09T02:35:41;100942.91;;;10.30;100.00
55675;BME280;41562;44.330;23.802;2023-05-09T02:38:10;100950.84;;;10.25;100.00
55675;BME280;41562;44.330;23.802;2023-05-09T02:40:38;100942.34;;;10.28;100.00
55675;BME280;41562;44.330;23.802;2023-05-09T02:43:08;100947.38;;;10.25;100.00
55675;BME280;41562;44.330;23.802;2023-05-09T02:45:36;100950.16;;;10.35;100.00
55675;BME280;41562;44.330;23.802;2023-05-09T02:48:03;100945.13;;;10.38;100.00
55675;BME280;41562;44.330;23.802;2023-05-09T02:50:34;100952.59;;;10.15;100.00
55675;BME280;41562;44.330;23.802;2023-05-09T02:53:02;100956.31;;;10.14;100.00
55675;BME280;41562;44.330;23.802;2023-05-09T02:55:29;100953.41;;;10.15;100.00
55675;BME280;41562;44.330;23.802;2023-05-09T02:57:56;100954.72;;;10.34;100.00
55675;BME280;41562;44.330;23.802;2023-05-09T03:00:39;100953.28;;;10.05;100.00
55675;BME280;41562;44.330;23.802;2023-05-09T03:03:06;100959.50;;;10.11;100.00
55675;BME280;41562;44.330;23.802;2023-05-09T03:05:33;100961.03;;;10.06;100.00
55675;BME280;41562;44.330;23.802;2023-05-09T03:08:00;100962.00;;;10.17;100.00
55675;BME280;41562;44.330;23.802;2023-05-09T03:10:28;100965.78;;;10.21;100.00
55675;BME280;41562;44.330;23.802;2023-05-09T03:12:55;100963.94;;;10.22;100.00
55675;BME280;41562;44.330;23.802;2023-05-09T03:15:22;100966.34;;;10.23;100.00
55675;BME280;41562;44.330;23.802;2023-05-09T03:17:49;100975.84;;;10.36;100.00
55675;BME280;41562;44.330;23.802;2023-05-09T03:20:17;100969.44;;;10.37;100.00
55675;BME280;41562;44.330;23.802;2023-05-09T03:22:44;100974.66;;;10.27;100.00
55675;BME280;41562;44.330;23.802;2023-05-09T03:25:11;100976.03;;;10.29;100.00
55675;BME280;41562;44.330;23.802;2023-05-09T03:27:41;100983.78;;;10.31;100.00
55675;BME280;41562;44.330;23.802;2023-05-09T03:30:09;100976.69;;;12.36;100.00
55675;BME280;41562;44.330;23.802;2023-05-09T03:32:36;100985.34;;;12.74;100.00
55675;BME280;41562;44.330;23.802;2023-05-09T03:35:03;100990.69;;;12.69;97.07
55675;BME280;41562;44.330;23.802;2023-05-09T03:37:33;100986.94;;;12.85;97.08
55675;BME280;41562;44.330;23.802;2023-05-09T03:40:01;100992.34;;;13.05;99.91
55675;BME280;41562;44.330;23.802;2023-05-09T03:42:44;100996.09;;;13.04;95.37
55675;BME280;41562;44.330;23.802;2023-05-09T03:45:12;100999.84;;;13.03;95.12
55675;BME280;41562;44.330;23.802;2023-05-09T03:47:40;101005.22;;;12.98;91.74
55675;BME280;41562;44.330;23.802;2023-05-09T03:50:09;101005.16;;;13.74;93.45
55675;BME280;41562;44.330;23.802;2023-05-09T03:52:36;101012.19;;;13.60;97.05
55675;BME280;41562;44.330;23.802;2023-05-09T03:55:05;101006.25;;;13.78;91.73
55675;BME280;41562;44.330;23.802;2023-05-09T03:57:34;101020.28;;;13.29;92.21
55675;BME280;41562;44.330;23.802;2023-05-09T04:00:02;101013.03;;;13.35;91.45
55675;BME280;41562;44.330;23.802;2023-05-09T04:02:32;101013.53;;;12.92;92.38
55675;BME280;41562;44.330;23.802;2023-05-09T04:05:00;101013.00;;;11.55;94.77
55675;BME280;41562;44.330;23.802;2023-05-09T04:07:30;101017.19;;;11.09;100.00
55675;BME280;41562;44.330;23.802;2023-05-09T04:09:59;101014.34;;;10.88;100.00
55675;BME280;41562;44.330;23.802;2023-05-09T04:12:26;101019.03;;;10.76;100.00
55675;BME280;41562;44.330;23.802;2023-05-09T04:14:53;101030.41;;;10.62;100.00
55675;BME280;41562;44.330;23.802;2023-05-09T04:17:21;101024.63;;;10.48;100.00
55675;BME280;41562;44.330;23.802;2023-05-09T04:19:48;101022.91;;;10.37;100.00
55675;BME280;41562;44.330;23.802;2023-05-09T04:22:15;101023.81;;;10.47;100.00
55675;BME280;41562;44.330;23.802;2023-05-09T04:24:42;101023.81;;;10.47;100.00
55675;BME280;41562;44.330;23.802;2023-05-09T04:27:09;101030.31;;;10.57;100.00
55675;BME280;41562;44.330;23.802;2023-05-09T04:29:37;101030.88;;;10.80;100.00
55675;BME280;41562;44.330;23.802;2023-05-09T04:32:04;101038.31;;;10.78;100.00
55675;BME280;41562;44.330;23.802;2023-05-09T04:34:32;101038.50;;;10.45;100.00
55675;BME280;41562;44.330;23.802;2023-05-09T04:36:59;101041.53;;;10.54;100.00
55675;BME280;41562;44.330;23.802;2023-05-09T04:39:26;101043.88;;;10.50;100.00
55675;BME280;41562;44.330;23.802;2023-05-09T04:41:54;101045.84;;;10.33;100.00
55675;BME280;41562;44.330;23.802;2023-05-09T04:44:21;101048.44;;;10.28;100.00
55675;BME280;41562;44.330;23.802;2023-05-09T04:46:48;101054.09;;;10.31;100.00
55675;BME280;41562;44.330;23.802;2023-05-09T04:49:15;101048.94;;;10.25;100.00
55675;BME280;41562;44.330;23.802;2023-05-09T04:51:42;101055.28;;;10.19;100.00
55675;BME280;41562;44.330;23.802;2023-05-09T04:54:09;101051.69;;;10.13;100.00
55675;BME280;41562;44.330;23.802;2023-05-09T04:56:37;101049.84;;;10.14;100.00
55675;BME280;41562;44.330;23.802;2023-05-09T04:59:04;101060.00;;;10.33;100.00
55675;BME280;41562;44.330;23.802;2023-05-09T05:01:31;101052.00;;;10.33;100.00
55675;BME280;41562;44.330;23.802;2023-05-09T05:04:03;101063.38;;;10.24;100.00
55675;BME280;41562;44.330;23.802;2023-05-09T05:06:37;101062.44;;;10.35;100.00
55675;BME280;41562;44.330;23.802;2023-05-09T05:09:06;101061.75;;;10.44;100.00
55675;BME280;41562;44.330;23.802;2023-05-09T05:11:33;101058.91;;;10.13;100.00
55675;BME280;41562;44.330;23.802;2023-05-09T05:14:09;101062.75;;;10.17;100.00
55675;BME280;41562;44.330;23.802;2023-05-09T05:16:37;101069.66;;;10.34;100.00
55675;BME280;41562;44.330;23.802;2023-05-09T05:19:08;101070.63;;;10.50;100.00
55675;BME280;41562;44.330;23.802;2023-05-09T05:21:44;101066.59;;;10.26;100.00
55675;BME280;41562;44.330;23.802;2023-05-09T05:24:15;101062.88;;;10.27;100.00
55675;BME280;41562;44.330;23.802;2023-05-09T05:26:43;101067.84;;;10.40;100.00
55675;BME280;41562;44.330;23.802;2023-05-09T05:29:11;101075.38;;;10.43;100.00
55675;BME280;41562;44.330;23.802;2023-05-09T05:31:45;101068.63;;;10.19;100.00
55675;BME280;41562;44.330;23.802;2023-05-09T05:34:13;101066.69;;;10.14;100.00
55675;BME280;41562;44.330;23.802;2023-05-09T05:36:40;101066.69;;;9.92;100.00
55675;BME280;41562;44.330;23.802;2023-05-09T05:39:07;101062.38;;;10.13;100.00
55675;BME280;41562;44.330;23.802;2023-05-09T05:41:34;101065.53;;;10.27;100.00
55675;BME280;41562;44.330;23.802;2023-05-09T05:44:01;101072.94;;;10.41;100.00
55675;BME280;41562;44.330;23.802;2023-05-09T05:46:29;101068.72;;;10.45;100.00
55675;BME280;41562;44.330;23.802;2023-05-09T05:48:56;101075.81;;;10.35;100.00
55675;BME280;41562;44.330;23.802;2023-05-09T05:51:24;101074.88;;;10.46;100.00
55675;BME280;41562;44.330;23.802;2023-05-09T05:53:51;101074.66;;;10.31;100.00
55675;BME280;41562;44.330;23.802;2023-05-09T05:56:18;101076.56;;;10.30;100.00
55675;BME280;41562;44.330;23.802;2023-05-09T05:58:46;101077.06;;;10.11;100.00
55675;BME280;41562;44.330;23.802;2023-05-09T06:01:13;101084.66;;;10.19;100.00
55675;BME280;41562;44.330;23.802;2023-05-09T06:03:40;101082.31;;;10.05;100.00
55675;BME280;41562;44.330;23.802;2023-05-09T06:06:08;101077.78;;;10.23;100.00
55675;BME280;41562;44.330;23.802;2023-05-09T06:08:35;101086.19;;;10.15;100.00
55675;BME280;41562;44.330;23.802;2023-05-09T06:11:02;101083.34;;;9.83;100.00
55675;BME280;41562;44.330;23.802;2023-05-09T06:13:29;101090.63;;;9.87;100.00
55675;BME280;41562;44.330;23.802;2023-05-09T06:15:56;101086.16;;;9.93;100.00
55675;BME280;41562;44.330;23.802;2023-05-09T06:18:41;101084.28;;;9.93;100.00
55675;BME280;41562;44.330;23.802;2023-05-09T06:21:08;101092.16;;;10.17;100.00
55675;BME280;41562;44.330;23.802;2023-05-09T06:23:35;101093.38;;;10.31;100.00
55675;BME280;41562;44.330;23.802;2023-05-09T06:26:06;101096.44;;;10.18;100.00
55675;BME280;41562;44.330;23.802;2023-05-09T06:28:33;101094.94;;;10.27;100.00
55675;BME280;41562;44.330;23.802;2023-05-09T06:31:00;101089.94;;;10.14;100.00
55675;BME280;41562;44.330;23.802;2023-05-09T06:33:28;101091.78;;;10.30;100.00
55675;BME280;41562;44.330;23.802;2023-05-09T06:35:55;101089.88;;;10.08;100.00
55675;BME280;41562;44.330;23.802;2023-05-09T06:38:22;101088.19;;;10.02;100.00
55675;BME280;41562;44.330;23.802;2023-05-09T06:40:52;101084.44;;;10.03;100.00
55675;BME280;41562;44.330;23.802;2023-05-09T06:43:20;101085.31;;;10.26;100.00
55675;BME280;41562;44.330;23.802;2023-05-09T06:45:47;101082.78;;;10.36;100.00
55675;BME280;41562;44.330;23.802;2023-05-09T06:48:14;101086.53;;;10.18;100.00
55675;BME280;41562;44.330;23.802;2023-05-09T06:50:41;101086.50;;;10.35;100.00
55675;BME280;41562;44.330;23.802;2023-05-09T06:53:09;101089.75;;;10.37;100.00
55675;BME280;41562;44.330;23.802;2023-05-09T06:55:36;101084.41;;;10.37;100.00
55675;BME280;41562;44.330;23.802;2023-05-09T06:58:03;101083.69;;;10.25;100.00
55675;BME280;41562;44.330;23.802;2023-05-09T07:00:30;101082.84;;;10.02;100.00
55675;BME280;41562;44.330;23.802;2023-05-09T07:02:58;101081.22;;;10.01;100.00
55675;BME280;41562;44.330;23.802;2023-05-09T07:05:25;101084.44;;;10.03;100.00
55675;BME280;41562;44.330;23.802;2023-05-09T07:07:52;101085.44;;;9.97;100.00
55675;BME280;41562;44.330;23.802;2023-05-09T07:10:20;101083.78;;;10.13;100.00
55675;BME280;41562;44.330;23.802;2023-05-09T07:12:48;101083.13;;;10.06;100.00
55675;BME280;41562;44.330;23.802;2023-05-09T07:15:15;101080.28;;;9.91;100.00
55675;BME280;41562;44.330;23.802;2023-05-09T07:17:58;101089.09;;;9.91;100.00
55675;BME280;41562;44.330;23.802;2023-05-09T07:20:26;101088.47;;;10.06;100.00
55675;BME280;41562;44.330;23.802;2023-05-09T07:22:53;101083.06;;;10.01;100.00
55675;BME280;41562;44.330;23.802;2023-05-09T07:25:20;101078.28;;;10.20;100.00
55675;BME280;41562;44.330;23.802;2023-05-09T07:27:47;101082.78;;;10.36;100.00
55675;BME280;41562;44.330;23.802;2023-05-09T07:30:15;101083.81;;;10.35;100.00
55675;BME280;41562;44.330;23.802;2023-05-09T07:32:42;101081.66;;;10.54;100.00
55675;BME280;41562;44.330;23.802;2023-05-09T07:35:10;101083.69;;;10.46;100.00
55675;BME280;41562;44.330;23.802;2023-05-09T07:37:37;101076.53;;;10.52;100.00
55675;BME280;41562;44.330;23.802;2023-05-09T07:40:05;101076.81;;;10.29;100.00
55675;BME280;41562;44.330;23.802;2023-05-09T07:42:32;101077.66;;;10.34;100.00
55675;BME280;41562;44.330;23.802;2023-05-09T07:45:00;101083.59;;;10.36;100.00
55675;BME280;41562;44.330;23.802;2023-05-09T07:47:27;101080.72;;;10.43;100.00
55675;BME280;41562;44.330;23.802;2023-05-09T07:49:55;101089.53;;;10.43;100.00
55675;BME280;41562;44.330;23.802;2023-05-09T07:52:22;101086.00;;;10.38;100.00
55675;BME280;41562;44.330;23.802;2023-05-09T07:54:50;101084.56;;;10.52;100.00
55675;BME280;41562;44.330;23.802;2023-05-09T07:57:17;101095.94;;;10.64;100.00
55675;BME280;41562;44.330;23.802;2023-05-09T07:59:44;101090.16;;;10.72;100.00
55675;BME280;41562;44.330;23.802;2023-05-09T08:02:12;101090.31;;;10.87;100.00
55675;BME280;41562;44.330;23.802;2023-05-09T08:04:39;101089.72;;;10.80;100.00
55675;BME280;41562;44.330;23.802;2023-05-09T08:07:06;101086.16;;;10.75;100.00
55675;BME280;41562;44.330;23.802;2023-05-09T08:09:34;101087.13;;;10.42;100.00
55675;BME280;41562;44.330;23.802;2023-05-09T08:12:01;101082.47;;;10.54;100.00
55675;BME280;41562;44.330;23.802;2023-05-09T08:14:28;101095.75;;;10.71;100.00
55675;BME280;41562;44.330;23.802;2023-05-09T08:16:55;101098.84;;;10.84;100.00
55675;BME280;41562;44.330;23.802;2023-05-09T08:19:22;101092.44;;;10.85;100.00
55675;BME280;41562;44.330;23.802;2023-05-09T08:21:50;101098.66;;;10.69;100.00
55675;BME280;41562;44.330;23.802;2023-05-09T08:24:17;101098.66;;;10.69;100.00
55675;BME280;41562;44.330;23.802;2023-05-09T08:26:46;101099.22;;;10.71;100.00
55675;BME280;41562;44.330;23.802;2023-05-09T08:29:13;101097.47;;;10.82;100.00
55675;BME280;41562;44.330;23.802;2023-05-09T08:31:40;101094.16;;;10.97;100.00
55675;BME280;41562;44.330;23.802;2023-05-09T08:34:07;101102.28;;;11.07;100.00
55675;BME280;41562;44.330;23.802;2023-05-09T08:36:35;101099.88;;;11.05;100.00
55675;BME280;41562;44.330;23.802;2023-05-09T08:39:02;101102.63;;;11.15;100.00
55675;BME280;41562;44.330;23.802;2023-05-09T08:41:32;101091.63;;;11.12;100.00
55675;BME280;41562;44.330;23.802;2023-05-09T08:43:59;101093.22;;;11.13;100.00
55675;BME280;41562;44.330;23.802;2023-05-09T08:46:30;101079.41;;;11.21;100.00
55675;BME280;41562;44.330;23.802;2023-05-09T08:48:59;101079.75;;;11.29;100.00
55675;BME280;41562;44.330;23.802;2023-05-09T08:51:28;101077.75;;;11.47;100.00
55675;BME280;41562;44.330;23.802;2023-05-09T08:53:56;101077.50;;;11.48;100.00
55675;BME280;41562;44.330;23.802;2023-05-09T08:56:23;101075.63;;;11.49;100.00
55675;BME280;41562;44.330;23.802;2023-05-09T08:58:52;101078.00;;;11.45;100.00
55675;BME280;41562;44.330;23.802;2023-05-09T09:01:21;101082.22;;;11.36;100.00
55675;BME280;41562;44.330;23.802;2023-05-09T09:03:50;101079.63;;;11.46;100.00
55675;BME280;41562;44.330;23.802;2023-05-09T09:06:18;101082.16;;;11.63;100.00
55675;BME280;41562;44.330;23.802;2023-05-09T09:08:45;101086.16;;;11.60;100.00
55675;BME280;41562;44.330;23.802;2023-05-09T09:11:14;101069.16;;;11.77;100.00
55675;BME280;41562;44.330;23.802;2023-05-09T09:13:44;101073.44;;;11.78;100.00
55675;BME280;41562;44.330;23.802;2023-05-09T09:16:22;101074.84;;;11.85;100.00
55675;BME280;41562;44.330;23.802;2023-05-09T09:18:51;101063.38;;;11.95;100.00
55675;BME280;41562;44.330;23.802;2023-05-09T09:21:18;101066.66;;;12.07;100.00
55675;BME280;41562;44.330;23.802;2023-05-09T09:23:46;101073.09;;;12.06;100.00
55675;BME280;41562;44.330;23.802;2023-05-09T09:26:15;101066.19;;;12.20;97.28
55675;BME280;41562;44.330;23.802;2023-05-09T09:28:43;101073.69;;;12.18;94.39
55675;BME280;41562;44.330;23.802;2023-05-09T09:31:30;101062.56;;;12.52;96.39
55675;BME280;41562;44.330;23.802;2023-05-09T09:34:00;101062.03;;;12.65;95.99
55675;BME280;41562;44.330;23.802;2023-05-09T09:36:30;101062.84;;;12.65;92.99
55675;BME280;41562;44.330;23.802;2023-05-09T09:38:58;101070.38;;;12.63;93.73
55675;BME280;41562;44.330;23.802;2023-05-09T09:41:34;101076.00;;;12.67;91.53
55675;BME280;41562;44.330;23.802;2023-05-09T09:44:18;101071.19;;;12.69;92.47
55675;BME280;41562;44.330;23.802;2023-05-09T09:46:51;101074.97;;;12.73;92.32
55675;BME280;41562;44.330;23.802;2023-05-09T09:49:24;101074.97;;;12.73;92.20
55675;BME280;41562;44.330;23.802;2023-05-09T09:51:57;101072.81;;;12.75;90.97
55675;BME280;41562;44.330;23.802;2023-05-09T09:54:25;101073.38;;;12.87;89.54
55675;BME280;41562;44.330;23.802;2023-05-09T09:56:53;101077.94;;;14.13;86.92
55675;BME280;41562;44.330;23.802;2023-05-09T09:59:22;101073.31;;;15.27;82.56
55675;BME280;41562;44.330;23.802;2023-05-09T10:02:04;101067.69;;;16.10;78.30
55675;BME280;41562;44.330;23.802;2023-05-09T10:04:36;101063.63;;;15.26;80.77
55675;BME280;41562;44.330;23.802;2023-05-09T10:07:05;101058.97;;;14.54;81.08
55675;BME280;41562;44.330;23.802;2023-05-09T10:09:34;101057.19;;;14.19;82.87
55675;BME280;41562;44.330;23.802;2023-05-09T10:12:06;101048.72;;;13.76;81.60
55675;BME280;41562;44.330;23.802;2023-05-09T10:14:36;101039.72;;;14.21;89.64
55675;BME280;41562;44.330;23.802;2023-05-09T10:17:04;101037.81;;;14.17;84.50
55675;BME280;41562;44.330;23.802;2023-05-09T10:19:34;101040.03;;;14.09;81.67
55675;BME280;41562;44.330;23.802;2023-05-09T10:22:09;101036.81;;;14.02;83.08
55675;BME280;41562;44.330;23.802;2023-05-09T10:24:47;101035.81;;;13.78;83.21
55675;BME280;41562;44.330;23.802;2023-05-09T10:27:21;101037.19;;;13.35;81.82
55675;BME280;41562;44.330;23.802;2023-05-09T10:29:54;101037.47;;;13.13;83.79
55675;BME280;41562;44.330;23.802;2023-05-09T10:32:31;101032.59;;;13.10;85.78
55675;BME280;41562;44.330;23.802;2023-05-09T10:35:04;101029.13;;;13.00;86.89
55675;BME280;41562;44.330;23.802;2023-05-09T10:37:32;101035.28;;;12.95;86.29
55675;BME280;41562;44.330;23.802;2023-05-09T10:40:02;101034.19;;;12.91;88.15
55675;BME280;41562;44.330;23.802;2023-05-09T10:42:30;101037.47;;;13.59;88.88
55675;BME280;41562;44.330;23.802;2023-05-09T10:44:57;101036.09;;;14.51;85.01
55675;BME280;41562;44.330;23.802;2023-05-09T10:47:25;101035.88;;;14.92;81.70
55675;BME280;41562;44.330;23.802;2023-05-09T10:49:57;101044.31;;;14.75;81.69
55675;BME280;41562;44.330;23.802;2023-05-09T10:52:24;101039.38;;;14.92;81.82
55675;BME280;41562;44.330;23.802;2023-05-09T10:55:02;101039.19;;;14.73;83.41
55675;BME280;41562;44.330;23.802;2023-05-09T10:57:30;101035.91;;;14.81;82.03
55675;BME280;41562;44.330;23.802;2023-05-09T10:59:58;101038.09;;;14.79;83.24
55675;BME280;41562;44.330;23.802;2023-05-09T11:02:26;101040.84;;;15.08;81.97
55675;BME280;41562;44.330;23.802;2023-05-09T11:05:13;101051.44;;;14.95;81.99
55675;BME280;41562;44.330;23.802;2023-05-09T11:07:41;101035.47;;;15.08;79.81
55675;BME280;41562;44.330;23.802;2023-05-09T11:10:16;101032.28;;;15.01;78.98
55675;BME280;41562;44.330;23.802;2023-05-09T11:12:57;101029.75;;;15.15;78.67
55675;BME280;41562;44.330;23.802;2023-05-09T11:15:25;101034.63;;;15.13;81.03
55675;BME280;41562;44.330;23.802;2023-05-09T11:18:06;101035.88;;;14.92;80.43
55675;BME280;41562;44.330;23.802;2023-05-09T11:20:35;101040.84;;;15.42;79.32
55675;BME280;41562;44.330;23.802;2023-05-09T11:23:03;101031.75;;;15.04;79.53
55675;BME280;41562;44.330;23.802;2023-05-09T11:25:31;101024.91;;;15.46;78.48
55675;BME280;41562;44.330;23.802;2023-05-09T11:28:01;101024.91;;;15.12;80.79
55675;BME280;41562;44.330;23.802;2023-05-09T11:30:41;101017.28;;;14.36;80.89
55675;BME280;41562;44.330;23.802;2023-05-09T11:33:23;101014.53;;;13.87;83.48
55675;BME280;41562;44.330;23.802;2023-05-09T11:36:16;101016.41;;;13.91;86.82
55675;BME280;41562;44.330;23.802;2023-05-09T11:38:45;101015.13;;;13.74;86.18
55675;BME280;41562;44.330;23.802;2023-05-09T11:41:17;101010.56;;;13.64;86.56
55675;BME280;41562;44.330;23.802;2023-05-09T11:43:44;101005.47;;;13.57;85.49
55675;BME280;41562;44.330;23.802;2023-05-09T11:46:12;100999.03;;;13.63;87.01
55675;BME280;41562;44.330;23.802;2023-05-09T11:48:42;101004.41;;;13.58;86.20
55675;BME280;41562;44.330;23.802;2023-05-09T11:51:17;101004.13;;;13.55;85.63
55675;BME280;41562;44.330;23.802;2023-05-09T11:53:49;101000.94;;;13.53;85.76
55675;BME280;41562;44.330;23.802;2023-05-09T11:56:17;101001.16;;;13.66;87.36
55675;BME280;41562;44.330;23.802;2023-05-09T11:58:51;101005.75;;;13.41;86.69
55675;BME280;41562;44.330;23.802;2023-05-09T12:01:19;100996.38;;;13.38;86.64
55675;BME280;41562;44.330;23.802;2023-05-09T12:03:52;100999.88;;;13.34;87.49
55675;BME280;41562;44.330;23.802;2023-05-09T12:06:22;100989.13;;;13.34;88.37
55675;BME280;41562;44.330;23.802;2023-05-09T12:08:54;100979.97;;;13.35;88.50
55675;BME280;41562;44.330;23.802;2023-05-09T12:11:23;100992.34;;;13.46;88.74
55675;BME280;41562;44.330;23.802;2023-05-09T12:13:55;100986.41;;;13.54;87.95
55675;BME280;41562;44.330;23.802;2023-05-09T12:16:22;100979.38;;;13.68;88.77
55675;BME280;41562;44.330;23.802;2023-05-09T12:18:51;100985.81;;;13.72;87.99
55675;BME280;41562;44.330;23.802;2023-05-09T12:21:21;100969.75;;;13.57;85.78
55675;BME280;41562;44.330;23.802;2023-05-09T12:23:49;100967.78;;;13.83;86.23
55675;BME280;41562;44.330;23.802;2023-05-09T12:26:20;100971.81;;;13.80;85.86
55675;BME280;41562;44.330;23.802;2023-05-09T12:28:50;100971.22;;;13.93;86.06
55675;BME280;41562;44.330;23.802;2023-05-09T12:31:19;100964.19;;;14.07;85.98
55675;BME280;41562;44.330;23.802;2023-05-09T12:33:49;100961.75;;;14.11;86.54
55675;BME280;41562;44.330;23.802;2023-05-09T12:36:18;100953.47;;;14.02;83.90
55675;BME280;41562;44.330;23.802;2023-05-09T12:38:54;100951.81;;;14.06;84.96
55675;BME280;41562;44.330;23.802;2023-05-09T12:41:22;100952.91;;;14.05;84.46
55675;BME280;41562;44.330;23.802;2023-05-09T12:43:56;100952.81;;;14.21;84.61
55675;BME280;41562;44.330;23.802;2023-05-09T12:46:24;100941.00;;;14.22;83.96
55675;BME280;41562;44.330;23.802;2023-05-09T12:48:51;100940.38;;;14.35;85.09
55675;BME280;41562;44.330;23.802;2023-05-09T12:51:19;100942.53;;;14.33;83.55
55675;BME280;41562;44.330;23.802;2023-05-09T12:53:48;100939.88;;;14.23;83.95
55675;BME280;41562;44.330;23.802;2023-05-09T12:56:17;100938.94;;;13.98;83.74
55675;BME280;41562;44.330;23.802;2023-05-09T12:58:54;100932.25;;;13.96;85.85